sensor_id;sensor_type;location;lat;lon;timestamp;P1;durP1;ratioP1;P2;durP2;ratioP2
10661;SDS011;5379;51.034;7.006;2022-10-31T00:00:09;7.43;;;4.83;;
10661;SDS011;5379;51.034;7.006;2022-10-31T00:02:36;5.60;;;4.67;;
10661;SDS011;5379;51.034;7.006;2022-10-31T00:05:04;7.30;;;4.60;;
10661;SDS011;5379;51.034;7.006;2022-10-31T00:07:31;7.53;;;4.40;;
10661;SDS011;5379;51.034;7.006;2022-10-31T00:10:00;15.77;;;4.97;;
10661;SDS011;5379;51.034;7.006;2022-10-31T00:12:27;8.90;;;4.23;;
10661;SDS011;5379;51.034;7.006;2022-10-31T00:14:54;5.03;;;4.23;;
10661;SDS011;5379;51.034;7.006;2022-10-31T00:17:21;9.73;;;4.70;;
10661;SDS011;5379;51.034;7.006;2022-10-31T00:19:48;7.17;;;4.23;;
10661;SDS011;5379;51.034;7.006;2022-10-31T00:22:16;7.80;;;4.03;;
10661;SDS011;5379;51.034;7.006;2022-10-31T00:24:43;7.57;;;4.57;;
10661;SDS011;5379;51.034;7.006;2022-10-31T00:27:12;11.87;;;4.77;;
10661;SDS011;5379;51.034;7.006;2022-10-31T00:29:39;7.23;;;3.80;;
10661;SDS011;5379;51.034;7.006;2022-10-31T00:32:06;6.90;;;4.33;;
10661;SDS011;5379;51.034;7.006;2022-10-31T00:34:33;10.20;;;3.37;;
10661;SDS011;5379;51.034;7.006;2022-10-31T00:37:00;6.40;;;4.30;;
10661;SDS011;5379;51.034;7.006;2022-10-31T00:39:27;5.20;;;3.70;;
10661;SDS011;5379;51.034;7.006;2022-10-31T00:41:54;5.23;;;4.43;;
10661;SDS011;5379;51.034;7.006;2022-10-31T00:44:22;7.50;;;4.60;;
10661;SDS011;5379;51.034;7.006;2022-10-31T00:46:49;9.17;;;4.20;;
10661;SDS011;5379;51.034;7.006;2022-10-31T00:49:16;6.77;;;4.20;;
10661;SDS011;5379;51.034;7.006;2022-10-31T00:51:43;4.23;;;3.83;;
10661;SDS011;5379;51.034;7.006;2022-10-31T00:54:10;7.93;;;4.33;;
10661;SDS011;5379;51.034;7.006;2022-10-31T00:56:37;5.20;;;3.97;;
10661;SDS011;5379;51.034;7.006;2022-10-31T00:59:04;8.17;;;4.10;;
10661;SDS011;5379;51.034;7.006;2022-10-31T01:01:33;8.60;;;4.27;;
10661;SDS011;5379;51.034;7.006;2022-10-31T01:04:00;20.43;;;4.73;;
10661;SDS011;5379;51.034;7.006;2022-10-31T01:06:27;7.90;;;4.03;;
10661;SDS011;5379;51.034;7.006;2022-10-31T01:08:54;6.83;;;4.57;;
10661;SDS011;5379;51.034;7.006;2022-10-31T01:11:21;6.93;;;4.20;;
10661;SDS011;5379;51.034;7.006;2022-10-31T01:13:49;6.30;;;4.30;;
10661;SDS011;5379;51.034;7.006;2022-10-31T01:16:18;9.43;;;4.23;;
10661;SDS011;5379;51.034;7.006;2022-10-31T01:18:47;5.83;;;4.40;;
10661;SDS011;5379;51.034;7.006;2022-10-31T01:21:15;9.03;;;4.60;;
10661;SDS011;5379;51.034;7.006;2022-10-31T01:23:43;11.30;;;4.80;;
10661;SDS011;5379;51.034;7.006;2022-10-31T01:26:11;6.63;;;4.60;;
10661;SDS011;5379;51.034;7.006;2022-10-31T01:28:43;4.83;;;4.20;;
10661;SDS011;5379;51.034;7.006;2022-10-31T01:31:11;4.33;;;3.93;;
10661;SDS011;5379;51.034;7.006;2022-10-31T01:33:39;19.33;;;4.57;;
10661;SDS011;5379;51.034;7.006;2022-10-31T01:36:15;7.83;;;4.30;;
10661;SDS011;5379;51.034;7.006;2022-10-31T01:38:44;7.40;;;4.27;;
10661;SDS011;5379;51.034;7.006;2022-10-31T01:41:12;8.20;;;4.50;;
10661;SDS011;5379;51.034;7.006;2022-10-31T01:43:45;9.80;;;4.00;;
10661;SDS011;5379;51.034;7.006;2022-10-31T01:46:14;9.73;;;4.37;;
10661;SDS011;5379;51.034;7.006;2022-10-31T01:48:44;5.87;;;4.27;;
10661;SDS011;5379;51.034;7.006;2022-10-31T01:51:11;10.17;;;4.47;;
10661;SDS011;5379;51.034;7.006;2022-10-31T01:53:43;5.00;;;4.33;;
10661;SDS011;5379;51.034;7.006;2022-10-31T01:56:12;5.27;;;3.93;;
10661;SDS011;5379;51.034;7.006;2022-10-31T01:58:39;7.80;;;3.83;;
10661;SDS011;5379;51.034;7.006;2022-10-31T02:01:06;7.10;;;4.17;;
10661;SDS011;5379;51.034;7.006;2022-10-31T02:03:34;6.30;;;3.67;;
10661;SDS011;5379;51.034;7.006;2022-10-31T02:06:01;8.60;;;3.90;;
10661;SDS011;5379;51.034;7.006;2022-10-31T02:08:33;5.37;;;4.17;;
10661;SDS011;5379;51.034;7.006;2022-10-31T02:11:01;10.83;;;3.90;;
10661;SDS011;5379;51.034;7.006;2022-10-31T02:13:28;8.73;;;4.23;;
10661;SDS011;5379;51.034;7.006;2022-10-31T02:15:56;4.83;;;3.83;;
10661;SDS011;5379;51.034;7.006;2022-10-31T02:18:24;9.40;;;4.57;;
10661;SDS011;5379;51.034;7.006;2022-10-31T02:20:58;11.17;;;4.53;;
10661;SDS011;5379;51.034;7.006;2022-10-31T02:23:51;5.13;;;4.50;;
10661;SDS011;5379;51.034;7.006;2022-10-31T02:26:45;10.53;;;4.97;;
10661;SDS011;5379;51.034;7.006;2022-10-31T02:29:53;4.57;;;3.87;;
10661;SDS011;5379;51.034;7.006;2022-10-31T02:32:40;5.40;;;4.23;;
10661;SDS011;5379;51.034;7.006;2022-10-31T02:35:17;5.17;;;4.07;;
10661;SDS011;5379;51.034;7.006;2022-10-31T02:38:13;10.03;;;4.10;;
10661;SDS011;5379;51.034;7.006;2022-10-31T02:40:51;7.77;;;3.87;;
10661;SDS011;5379;51.034;7.006;2022-10-31T02:43:27;7.73;;;3.90;;
10661;SDS011;5379;51.034;7.006;2022-10-31T02:45:59;4.77;;;4.17;;
10661;SDS011;5379;51.034;7.006;2022-10-31T02:48:34;10.00;;;3.67;;
10661;SDS011;5379;51.034;7.006;2022-10-31T02:51:05;11.63;;;4.30;;
10661;SDS011;5379;51.034;7.006;2022-10-31T02:53:34;8.47;;;3.87;;
10661;SDS011;5379;51.034;7.006;2022-10-31T02:56:04;9.17;;;5.10;;
10661;SDS011;5379;51.034;7.006;2022-10-31T02:58:35;10.73;;;4.57;;
10661;SDS011;5379;51.034;7.006;2022-10-31T03:04:26;5.43;;;4.10;;
10661;SDS011;5379;51.034;7.006;2022-10-31T03:07:03;9.33;;;4.07;;
10661;SDS011;5379;51.034;7.006;2022-10-31T03:09:38;7.53;;;4.57;;
10661;SDS011;5379;51.034;7.006;2022-10-31T03:12:14;4.63;;;4.20;;
10661;SDS011;5379;51.034;7.006;2022-10-31T03:14:48;10.40;;;4.57;;
10661;SDS011;5379;51.034;7.006;2022-10-31T03:17:21;5.87;;;3.97;;
10661;SDS011;5379;51.034;7.006;2022-10-31T03:19:54;5.37;;;3.83;;
10661;SDS011;5379;51.034;7.006;2022-10-31T03:22:26;6.17;;;4.30;;
10661;SDS011;5379;51.034;7.006;2022-10-31T03:24:55;7.67;;;4.17;;
10661;SDS011;5379;51.034;7.006;2022-10-31T03:27:24;4.87;;;3.77;;
10661;SDS011;5379;51.034;7.006;2022-10-31T03:29:54;10.07;;;4.00;;
10661;SDS011;5379;51.034;7.006;2022-10-31T03:32:24;9.10;;;4.57;;
10661;SDS011;5379;51.034;7.006;2022-10-31T03:34:57;19.00;;;4.70;;
10661;SDS011;5379;51.034;7.006;2022-10-31T03:37:27;5.73;;;4.03;;
10661;SDS011;5379;51.034;7.006;2022-10-31T03:39:56;7.73;;;4.20;;
10661;SDS011;5379;51.034;7.006;2022-10-31T03:42:24;8.17;;;4.57;;
10661;SDS011;5379;51.034;7.006;2022-10-31T03:44:55;5.93;;;4.37;;
10661;SDS011;5379;51.034;7.006;2022-10-31T03:47:24;6.03;;;4.50;;
10661;SDS011;5379;51.034;7.006;2022-10-31T03:49:51;8.63;;;4.23;;
10661;SDS011;5379;51.034;7.006;2022-10-31T03:52:22;8.47;;;4.80;;
10661;SDS011;5379;51.034;7.006;2022-10-31T03:54:54;8.47;;;4.23;;
10661;SDS011;5379;51.034;7.006;2022-10-31T03:57:24;7.57;;;4.80;;
10661;SDS011;5379;51.034;7.006;2022-10-31T03:59:55;6.90;;;4.07;;
10661;SDS011;5379;51.034;7.006;2022-10-31T04:02:27;7.47;;;4.07;;
10661;SDS011;5379;51.034;7.006;2022-10-31T04:04:57;12.03;;;5.13;;
10661;SDS011;5379;51.034;7.006;2022-10-31T04:07:28;11.23;;;4.17;;
10661;SDS011;5379;51.034;7.006;2022-10-31T04:10:00;9.27;;;4.23;;
10661;SDS011;5379;51.034;7.006;2022-10-31T04:12:30;9.97;;;4.57;;
10661;SDS011;5379;51.034;7.006;2022-10-31T04:14:58;9.37;;;4.40;;
10661;SDS011;5379;51.034;7.006;2022-10-31T04:17:27;7.03;;;4.70;;
10661;SDS011;5379;51.034;7.006;2022-10-31T04:19:58;8.47;;;4.20;;
10661;SDS011;5379;51.034;7.006;2022-10-31T04:22:27;7.10;;;4.37;;
10661;SDS011;5379;51.034;7.006;2022-10-31T04:24:54;7.10;;;4.53;;
10661;SDS011;5379;51.034;7.006;2022-10-31T04:27:21;7.60;;;4.53;;
10661;SDS011;5379;51.034;7.006;2022-10-31T04:29:48;7.80;;;4.97;;
10661;SDS011;5379;51.034;7.006;2022-10-31T04:32:15;6.60;;;4.67;;
10661;SDS011;5379;51.034;7.006;2022-10-31T04:34:42;5.63;;;4.77;;
10661;SDS011;5379;51.034;7.006;2022-10-31T04:37:09;7.93;;;4.50;;
10661;SDS011;5379;51.034;7.006;2022-10-31T04:39:37;9.07;;;4.07;;
10661;SDS011;5379;51.034;7.006;2022-10-31T04:42:04;6.17;;;4.57;;
10661;SDS011;5379;51.034;7.006;2022-10-31T04:44:31;8.77;;;4.57;;
10661;SDS011;5379;51.034;7.006;2022-10-31T04:46:58;8.07;;;4.77;;
10661;SDS011;5379;51.034;7.006;2022-10-31T04:49:25;5.03;;;4.50;;
10661;SDS011;5379;51.034;7.006;2022-10-31T04:51:52;9.97;;;4.40;;
10661;SDS011;5379;51.034;7.006;2022-10-31T04:54:19;8.00;;;4.67;;
10661;SDS011;5379;51.034;7.006;2022-10-31T04:56:47;6.40;;;4.37;;
10661;SDS011;5379;51.034;7.006;2022-10-31T04:59:15;11.43;;;4.10;;
10661;SDS011;5379;51.034;7.006;2022-10-31T05:01:41;6.40;;;4.00;;
10661;SDS011;5379;51.034;7.006;2022-10-31T05:04:08;7.63;;;5.00;;
10661;SDS011;5379;51.034;7.006;2022-10-31T05:06:36;10.73;;;4.73;;
10661;SDS011;5379;51.034;7.006;2022-10-31T05:09:03;12.30;;;5.30;;
10661;SDS011;5379;51.034;7.006;2022-10-31T05:11:30;8.07;;;5.10;;
10661;SDS011;5379;51.034;7.006;2022-10-31T05:13:58;9.17;;;5.33;;
10661;SDS011;5379;51.034;7.006;2022-10-31T05:16:25;10.77;;;5.00;;
10661;SDS011;5379;51.034;7.006;2022-10-31T05:18:52;14.13;;;5.13;;
10661;SDS011;5379;51.034;7.006;2022-10-31T05:21:19;9.83;;;6.00;;
10661;SDS011;5379;51.034;7.006;2022-10-31T05:23:46;6.70;;;5.13;;
10661;SDS011;5379;51.034;7.006;2022-10-31T05:26:13;10.77;;;4.80;;
10661;SDS011;5379;51.034;7.006;2022-10-31T05:28:40;9.53;;;5.23;;
10661;SDS011;5379;51.034;7.006;2022-10-31T05:31:08;6.27;;;4.97;;
10661;SDS011;5379;51.034;7.006;2022-10-31T05:33:35;5.90;;;4.73;;
10661;SDS011;5379;51.034;7.006;2022-10-31T05:36:03;5.07;;;4.30;;
10661;SDS011;5379;51.034;7.006;2022-10-31T05:38:30;9.00;;;5.20;;
10661;SDS011;5379;51.034;7.006;2022-10-31T05:40:57;9.00;;;5.37;;
10661;SDS011;5379;51.034;7.006;2022-10-31T05:43:25;7.47;;;5.50;;
10661;SDS011;5379;51.034;7.006;2022-10-31T05:45:52;11.20;;;5.50;;
10661;SDS011;5379;51.034;7.006;2022-10-31T05:48:21;12.27;;;5.33;;
10661;SDS011;5379;51.034;7.006;2022-10-31T05:50:48;7.03;;;5.20;;
10661;SDS011;5379;51.034;7.006;2022-10-31T05:53:15;7.50;;;5.50;;
10661;SDS011;5379;51.034;7.006;2022-10-31T05:55:43;7.27;;;5.07;;
10661;SDS011;5379;51.034;7.006;2022-10-31T05:58:10;10.43;;;5.40;;
10661;SDS011;5379;51.034;7.006;2022-10-31T06:00:37;10.10;;;5.30;;
10661;SDS011;5379;51.034;7.006;2022-10-31T06:03:04;10.30;;;5.73;;
10661;SDS011;5379;51.034;7.006;2022-10-31T06:05:34;6.07;;;4.60;;
10661;SDS011;5379;51.034;7.006;2022-10-31T06:08:01;8.53;;;5.30;;
10661;SDS011;5379;51.034;7.006;2022-10-31T06:10:28;7.77;;;5.30;;
10661;SDS011;5379;51.034;7.006;2022-10-31T06:12:55;7.90;;;5.00;;
10661;SDS011;5379;51.034;7.006;2022-10-31T06:15:22;11.20;;;5.40;;
10661;SDS011;5379;51.034;7.006;2022-10-31T06:17:56;7.70;;;6.27;;
10661;SDS011;5379;51.034;7.006;2022-10-31T06:20:24;7.53;;;5.73;;
10661;SDS011;5379;51.034;7.006;2022-10-31T06:22:53;10.80;;;5.80;;
10661;SDS011;5379;51.034;7.006;2022-10-31T06:25:20;10.10;;;5.53;;
10661;SDS011;5379;51.034;7.006;2022-10-31T06:27:47;6.37;;;5.00;;
10661;SDS011;5379;51.034;7.006;2022-10-31T06:30:14;8.73;;;5.83;;
10661;SDS011;5379;51.034;7.006;2022-10-31T06:32:41;8.13;;;5.50;;
10661;SDS011;5379;51.034;7.006;2022-10-31T06:35:08;8.47;;;5.67;;
10661;SDS011;5379;51.034;7.006;2022-10-31T06:37:36;8.67;;;5.30;;
10661;SDS011;5379;51.034;7.006;2022-10-31T06:40:05;6.30;;;5.50;;
10661;SDS011;5379;51.034;7.006;2022-10-31T06:42:32;14.40;;;5.93;;
10661;SDS011;5379;51.034;7.006;2022-10-31T06:44:59;6.57;;;5.87;;
10661;SDS011;5379;51.034;7.006;2022-10-31T06:47:26;7.93;;;5.40;;
10661;SDS011;5379;51.034;7.006;2022-10-31T06:49:53;10.90;;;5.73;;
10661;SDS011;5379;51.034;7.006;2022-10-31T06:52:20;7.70;;;5.63;;
10661;SDS011;5379;51.034;7.006;2022-10-31T06:54:48;8.93;;;5.97;;
10661;SDS011;5379;51.034;7.006;2022-10-31T06:57:16;13.47;;;6.00;;
10661;SDS011;5379;51.034;7.006;2022-10-31T06:59:43;15.20;;;5.80;;
10661;SDS011;5379;51.034;7.006;2022-10-31T07:02:11;9.23;;;5.87;;
10661;SDS011;5379;51.034;7.006;2022-10-31T07:04:38;13.20;;;6.03;;
10661;SDS011;5379;51.034;7.006;2022-10-31T07:07:05;9.17;;;6.10;;
10661;SDS011;5379;51.034;7.006;2022-10-31T07:09:32;7.00;;;5.93;;
10661;SDS011;5379;51.034;7.006;2022-10-31T07:11:59;12.30;;;6.20;;
10661;SDS011;5379;51.034;7.006;2022-10-31T07:14:27;9.17;;;6.17;;
10661;SDS011;5379;51.034;7.006;2022-10-31T07:16:54;10.10;;;5.70;;
10661;SDS011;5379;51.034;7.006;2022-10-31T07:19:21;14.40;;;6.80;;
10661;SDS011;5379;51.034;7.006;2022-10-31T07:21:48;9.47;;;6.57;;
10661;SDS011;5379;51.034;7.006;2022-10-31T07:24:15;8.50;;;5.73;;
10661;SDS011;5379;51.034;7.006;2022-10-31T07:26:42;9.73;;;5.70;;
10661;SDS011;5379;51.034;7.006;2022-10-31T07:29:11;9.47;;;6.13;;
10661;SDS011;5379;51.034;7.006;2022-10-31T07:31:39;10.33;;;6.47;;
10661;SDS011;5379;51.034;7.006;2022-10-31T07:34:06;11.50;;;6.27;;
10661;SDS011;5379;51.034;7.006;2022-10-31T07:36:33;9.10;;;6.13;;
10661;SDS011;5379;51.034;7.006;2022-10-31T07:39:00;6.97;;;5.33;;
10661;SDS011;5379;51.034;7.006;2022-10-31T07:41:27;9.73;;;5.47;;
10661;SDS011;5379;51.034;7.006;2022-10-31T07:43:54;10.20;;;6.17;;
10661;SDS011;5379;51.034;7.006;2022-10-31T07:46:21;8.70;;;5.20;;
10661;SDS011;5379;51.034;7.006;2022-10-31T07:48:50;13.47;;;5.87;;
10661;SDS011;5379;51.034;7.006;2022-10-31T07:51:17;9.47;;;5.70;;
10661;SDS011;5379;51.034;7.006;2022-10-31T07:53:43;20.03;;;5.93;;
10661;SDS011;5379;51.034;7.006;2022-10-31T07:56:11;11.63;;;7.03;;
10661;SDS011;5379;51.034;7.006;2022-10-31T07:58:38;6.63;;;5.57;;
10661;SDS011;5379;51.034;7.006;2022-10-31T08:01:05;9.87;;;5.97;;
10661;SDS011;5379;51.034;7.006;2022-10-31T08:03:32;9.47;;;5.90;;
10661;SDS011;5379;51.034;7.006;2022-10-31T08:06:00;12.40;;;5.77;;
10661;SDS011;5379;51.034;7.006;2022-10-31T08:08:27;6.63;;;5.20;;
10661;SDS011;5379;51.034;7.006;2022-10-31T08:10:54;9.97;;;5.50;;
10661;SDS011;5379;51.034;7.006;2022-10-31T08:13:21;11.57;;;5.77;;
10661;SDS011;5379;51.034;7.006;2022-10-31T08:15:48;14.30;;;5.80;;
10661;SDS011;5379;51.034;7.006;2022-10-31T08:18:17;7.67;;;5.90;;
10661;SDS011;5379;51.034;7.006;2022-10-31T08:20:44;14.80;;;5.97;;
10661;SDS011;5379;51.034;7.006;2022-10-31T08:23:13;10.53;;;6.47;;
10661;SDS011;5379;51.034;7.006;2022-10-31T08:25:41;9.13;;;5.83;;
10661;SDS011;5379;51.034;7.006;2022-10-31T08:28:08;13.50;;;6.23;;
10661;SDS011;5379;51.034;7.006;2022-10-31T08:30:37;10.03;;;6.37;;
10661;SDS011;5379;51.034;7.006;2022-10-31T08:33:05;13.13;;;6.17;;
10661;SDS011;5379;51.034;7.006;2022-10-31T08:35:34;7.03;;;6.03;;
10661;SDS011;5379;51.034;7.006;2022-10-31T08:38:02;6.97;;;5.77;;
10661;SDS011;5379;51.034;7.006;2022-10-31T08:40:31;8.87;;;5.93;;
10661;SDS011;5379;51.034;7.006;2022-10-31T08:42:59;7.17;;;6.27;;
10661;SDS011;5379;51.034;7.006;2022-10-31T08:45:27;10.20;;;5.97;;
10661;SDS011;5379;51.034;7.006;2022-10-31T08:47:58;11.03;;;6.13;;
10661;SDS011;5379;51.034;7.006;2022-10-31T08:50:26;9.53;;;5.83;;
10661;SDS011;5379;51.034;7.006;2022-10-31T08:52:53;19.57;;;6.13;;
10661;SDS011;5379;51.034;7.006;2022-10-31T08:55:25;11.50;;;6.13;;
10661;SDS011;5379;51.034;7.006;2022-10-31T08:57:55;15.90;;;5.77;;
10661;SDS011;5379;51.034;7.006;2022-10-31T09:00:22;13.37;;;6.77;;
10661;SDS011;5379;51.034;7.006;2022-10-31T09:02:54;10.93;;;6.40;;
10661;SDS011;5379;51.034;7.006;2022-10-31T09:05:22;8.57;;;6.83;;
10661;SDS011;5379;51.034;7.006;2022-10-31T09:07:50;12.13;;;6.80;;
10661;SDS011;5379;51.034;7.006;2022-10-31T09:10:17;12.77;;;6.30;;
10661;SDS011;5379;51.034;7.006;2022-10-31T09:12:44;8.03;;;5.87;;
10661;SDS011;5379;51.034;7.006;2022-10-31T09:15:12;11.33;;;5.00;;
10661;SDS011;5379;51.034;7.006;2022-10-31T09:17:39;7.47;;;5.77;;
10661;SDS011;5379;51.034;7.006;2022-10-31T09:20:12;8.27;;;5.30;;
10661;SDS011;5379;51.034;7.006;2022-10-31T09:22:40;12.53;;;5.90;;
10661;SDS011;5379;51.034;7.006;2022-10-31T09:25:07;9.07;;;6.13;;
10661;SDS011;5379;51.034;7.006;2022-10-31T09:27:34;8.40;;;6.03;;
10661;SDS011;5379;51.034;7.006;2022-10-31T09:30:02;7.00;;;5.50;;
10661;SDS011;5379;51.034;7.006;2022-10-31T09:32:30;10.53;;;5.83;;
10661;SDS011;5379;51.034;7.006;2022-10-31T09:34:57;8.57;;;6.30;;
10661;SDS011;5379;51.034;7.006;2022-10-31T09:37:24;11.50;;;6.13;;
10661;SDS011;5379;51.034;7.006;2022-10-31T09:39:51;11.23;;;5.67;;
10661;SDS011;5379;51.034;7.006;2022-10-31T09:42:25;7.13;;;6.03;;
10661;SDS011;5379;51.034;7.006;2022-10-31T09:45:18;8.03;;;5.83;;
10661;SDS011;5379;51.034;7.006;2022-10-31T09:47:55;11.73;;;5.77;;
10661;SDS011;5379;51.034;7.006;2022-10-31T09:50:36;12.73;;;6.10;;
10661;SDS011;5379;51.034;7.006;2022-10-31T09:53:08;14.77;;;5.93;;
10661;SDS011;5379;51.034;7.006;2022-10-31T09:55:40;7.37;;;4.70;;
10661;SDS011;5379;51.034;7.006;2022-10-31T09:58:09;7.20;;;5.10;;
10661;SDS011;5379;51.034;7.006;2022-10-31T10:00:42;8.90;;;5.10;;
10661;SDS011;5379;51.034;7.006;2022-10-31T10:03:12;7.23;;;4.87;;
10661;SDS011;5379;51.034;7.006;2022-10-31T10:05:51;11.10;;;5.40;;
10661;SDS011;5379;51.034;7.006;2022-10-31T10:08:23;7.60;;;5.40;;
10661;SDS011;5379;51.034;7.006;2022-10-31T10:10:54;8.40;;;4.90;;
10661;SDS011;5379;51.034;7.006;2022-10-31T10:13:37;12.73;;;5.00;;
10661;SDS011;5379;51.034;7.006;2022-10-31T10:16:31;9.60;;;5.17;;
10661;SDS011;5379;51.034;7.006;2022-10-31T10:19:12;10.60;;;5.63;;
10661;SDS011;5379;51.034;7.006;2022-10-31T10:21:49;8.07;;;5.47;;
10661;SDS011;5379;51.034;7.006;2022-10-31T10:24:27;8.23;;;4.87;;
10661;SDS011;5379;51.034;7.006;2022-10-31T10:27:05;11.27;;;5.37;;
10661;SDS011;5379;51.034;7.006;2022-10-31T10:29:41;14.87;;;5.10;;
10661;SDS011;5379;51.034;7.006;2022-10-31T10:32:16;5.93;;;4.43;;
10661;SDS011;5379;51.034;7.006;2022-10-31T10:34:49;16.73;;;5.03;;
10661;SDS011;5379;51.034;7.006;2022-10-31T10:37:24;6.50;;;4.17;;
10661;SDS011;5379;51.034;7.006;2022-10-31T10:39:56;7.77;;;4.67;;
10661;SDS011;5379;51.034;7.006;2022-10-31T10:42:33;5.50;;;3.73;;
10661;SDS011;5379;51.034;7.006;2022-10-31T10:45:19;9.80;;;4.27;;
10661;SDS011;5379;51.034;7.006;2022-10-31T10:48:14;5.87;;;4.23;;
10661;SDS011;5379;51.034;7.006;2022-10-31T10:50:48;10.43;;;4.07;;
10661;SDS011;5379;51.034;7.006;2022-10-31T10:53:21;6.30;;;3.83;;
10661;SDS011;5379;51.034;7.006;2022-10-31T10:56:02;4.23;;;3.30;;
10661;SDS011;5379;51.034;7.006;2022-10-31T10:58:37;5.13;;;3.70;;
10661;SDS011;5379;51.034;7.006;2022-10-31T11:01:09;12.60;;;3.80;;
10661;SDS011;5379;51.034;7.006;2022-10-31T11:03:38;5.90;;;3.70;;
10661;SDS011;5379;51.034;7.006;2022-10-31T11:08:59;5.63;;;3.83;;
10661;SDS011;5379;51.034;7.006;2022-10-31T11:11:35;6.97;;;3.17;;
10661;SDS011;5379;51.034;7.006;2022-10-31T11:14:06;8.70;;;3.47;;
10661;SDS011;5379;51.034;7.006;2022-10-31T11:16:40;16.50;;;3.63;;
10661;SDS011;5379;51.034;7.006;2022-10-31T11:19:17;26.60;;;3.73;;
10661;SDS011;5379;51.034;7.006;2022-10-31T11:21:47;5.43;;;3.50;;
10661;SDS011;5379;51.034;7.006;2022-10-31T11:24:16;5.13;;;3.00;;
10661;SDS011;5379;51.034;7.006;2022-10-31T11:26:45;4.17;;;3.00;;
10661;SDS011;5379;51.034;7.006;2022-10-31T11:29:14;7.90;;;3.27;;
10661;SDS011;5379;51.034;7.006;2022-10-31T11:31:44;4.50;;;2.77;;
10661;SDS011;5379;51.034;7.006;2022-10-31T11:34:14;11.13;;;3.07;;
10661;SDS011;5379;51.034;7.006;2022-10-31T11:36:50;7.30;;;4.17;;
10661;SDS011;5379;51.034;7.006;2022-10-31T11:39:18;8.77;;;3.57;;
10661;SDS011;5379;51.034;7.006;2022-10-31T11:41:49;4.67;;;3.27;;
10661;SDS011;5379;51.034;7.006;2022-10-31T11:44:19;6.47;;;4.07;;
10661;SDS011;5379;51.034;7.006;2022-10-31T11:46:48;6.70;;;4.03;;
10661;SDS011;5379;51.034;7.006;2022-10-31T11:49:18;12.43;;;3.27;;
10661;SDS011;5379;51.034;7.006;2022-10-31T11:51:51;3.17;;;2.70;;
10661;SDS011;5379;51.034;7.006;2022-10-31T11:54:23;9.77;;;3.57;;
10661;SDS011;5379;51.034;7.006;2022-10-31T11:56:53;7.57;;;2.83;;
10661;SDS011;5379;51.034;7.006;2022-10-31T11:59:26;5.03;;;3.40;;
10661;SDS011;5379;51.034;7.006;2022-10-31T12:01:55;11.27;;;3.33;;
10661;SDS011;5379;51.034;7.006;2022-10-31T12:04:26;8.40;;;3.50;;
10661;SDS011;5379;51.034;7.006;2022-10-31T12:06:58;5.00;;;3.23;;
10661;SDS011;5379;51.034;7.006;2022-10-31T12:09:27;4.60;;;3.20;;
10661;SDS011;5379;51.034;7.006;2022-10-31T12:12:03;6.40;;;3.13;;
10661;SDS011;5379;51.034;7.006;2022-10-31T12:14:46;7.27;;;3.47;;
10661;SDS011;5379;51.034;7.006;2022-10-31T12:17:21;8.90;;;4.00;;
10661;SDS011;5379;51.034;7.006;2022-10-31T12:19:57;12.13;;;3.30;;
10661;SDS011;5379;51.034;7.006;2022-10-31T12:22:33;6.83;;;3.70;;
10661;SDS011;5379;51.034;7.006;2022-10-31T12:25:21;4.30;;;3.13;;
10661;SDS011;5379;51.034;7.006;2022-10-31T12:28:03;3.70;;;3.17;;
10661;SDS011;5379;51.034;7.006;2022-10-31T12:30:46;19.23;;;3.80;;
10661;SDS011;5379;51.034;7.006;2022-10-31T12:36:29;7.23;;;3.20;;
10661;SDS011;5379;51.034;7.006;2022-10-31T12:39:11;5.17;;;2.70;;
10661;SDS011;5379;51.034;7.006;2022-10-31T12:41:49;4.87;;;2.17;;
10661;SDS011;5379;51.034;7.006;2022-10-31T12:44:26;3.27;;;2.97;;
10661;SDS011;5379;51.034;7.006;2022-10-31T12:47:20;5.33;;;2.97;;
10661;SDS011;5379;51.034;7.006;2022-10-31T12:49:59;7.63;;;3.13;;
10661;SDS011;5379;51.034;7.006;2022-10-31T12:52:42;6.27;;;2.83;;
10661;SDS011;5379;51.034;7.006;2022-10-31T12:55:36;6.53;;;2.40;;
10661;SDS011;5379;51.034;7.006;2022-10-31T12:58:10;8.63;;;3.37;;
10661;SDS011;5379;51.034;7.006;2022-10-31T13:00:44;4.40;;;2.60;;
10661;SDS011;5379;51.034;7.006;2022-10-31T13:03:18;11.60;;;3.40;;
10661;SDS011;5379;51.034;7.006;2022-10-31T13:05:57;10.80;;;3.13;;
10661;SDS011;5379;51.034;7.006;2022-10-31T13:08:30;4.63;;;2.70;;
10661;SDS011;5379;51.034;7.006;2022-10-31T13:11:05;9.37;;;2.87;;
10661;SDS011;5379;51.034;7.006;2022-10-31T13:13:37;4.57;;;2.47;;
10661;SDS011;5379;51.034;7.006;2022-10-31T13:16:10;5.03;;;2.93;;
10661;SDS011;5379;51.034;7.006;2022-10-31T13:18:42;10.13;;;3.07;;
10661;SDS011;5379;51.034;7.006;2022-10-31T13:21:17;9.80;;;3.13;;
10661;SDS011;5379;51.034;7.006;2022-10-31T13:23:49;5.17;;;3.00;;
10661;SDS011;5379;51.034;7.006;2022-10-31T13:26:20;6.00;;;2.77;;
10661;SDS011;5379;51.034;7.006;2022-10-31T13:28:59;4.40;;;2.60;;
10661;SDS011;5379;51.034;7.006;2022-10-31T13:31:31;3.40;;;2.70;;
10661;SDS011;5379;51.034;7.006;2022-10-31T13:34:01;8.03;;;3.17;;
10661;SDS011;5379;51.034;7.006;2022-10-31T13:36:36;6.53;;;3.03;;
10661;SDS011;5379;51.034;7.006;2022-10-31T13:39:13;4.13;;;2.87;;
10661;SDS011;5379;51.034;7.006;2022-10-31T13:41:50;2.60;;;2.40;;
10661;SDS011;5379;51.034;7.006;2022-10-31T13:44:22;2.53;;;2.33;;
10661;SDS011;5379;51.034;7.006;2022-10-31T13:46:50;3.10;;;2.57;;
10661;SDS011;5379;51.034;7.006;2022-10-31T13:49:21;19.23;;;2.83;;
10661;SDS011;5379;51.034;7.006;2022-10-31T13:51:51;8.00;;;2.83;;
10661;SDS011;5379;51.034;7.006;2022-10-31T13:54:20;9.50;;;3.00;;
10661;SDS011;5379;51.034;7.006;2022-10-31T13:56:51;4.30;;;2.77;;
10661;SDS011;5379;51.034;7.006;2022-10-31T13:59:19;4.13;;;2.90;;
10661;SDS011;5379;51.034;7.006;2022-10-31T14:01:49;3.13;;;2.70;;
10661;SDS011;5379;51.034;7.006;2022-10-31T14:04:22;5.83;;;2.57;;
10661;SDS011;5379;51.034;7.006;2022-10-31T14:06:56;4.70;;;2.47;;
10661;SDS011;5379;51.034;7.006;2022-10-31T14:09:31;6.90;;;2.90;;
10661;SDS011;5379;51.034;7.006;2022-10-31T14:12:02;6.53;;;3.20;;
10661;SDS011;5379;51.034;7.006;2022-10-31T14:14:33;6.43;;;3.00;;
10661;SDS011;5379;51.034;7.006;2022-10-31T14:17:17;6.40;;;2.90;;
10661;SDS011;5379;51.034;7.006;2022-10-31T14:19:56;4.47;;;2.27;;
10661;SDS011;5379;51.034;7.006;2022-10-31T14:22:29;2.97;;;2.67;;
10661;SDS011;5379;51.034;7.006;2022-10-31T14:24:57;5.17;;;3.10;;
10661;SDS011;5379;51.034;7.006;2022-10-31T14:27:42;7.13;;;3.00;;
10661;SDS011;5379;51.034;7.006;2022-10-31T14:30:15;7.17;;;2.63;;
10661;SDS011;5379;51.034;7.006;2022-10-31T14:32:44;4.17;;;2.23;;
10661;SDS011;5379;51.034;7.006;2022-10-31T14:35:15;6.10;;;3.10;;
10661;SDS011;5379;51.034;7.006;2022-10-31T14:40:41;7.43;;;2.50;;
10661;SDS011;5379;51.034;7.006;2022-10-31T14:46:17;6.73;;;2.67;;
10661;SDS011;5379;51.034;7.006;2022-10-31T14:49:04;3.00;;;2.57;;
10661;SDS011;5379;51.034;7.006;2022-10-31T14:51:42;3.10;;;2.43;;
10661;SDS011;5379;51.034;7.006;2022-10-31T14:54:12;13.27;;;3.00;;
10661;SDS011;5379;51.034;7.006;2022-10-31T14:56:50;4.03;;;2.80;;
10661;SDS011;5379;51.034;7.006;2022-10-31T14:59:23;5.87;;;2.77;;
10661;SDS011;5379;51.034;7.006;2022-10-31T15:01:55;5.37;;;2.70;;
10661;SDS011;5379;51.034;7.006;2022-10-31T15:04:25;8.03;;;2.80;;
10661;SDS011;5379;51.034;7.006;2022-10-31T15:06:54;13.70;;;3.00;;
10661;SDS011;5379;51.034;7.006;2022-10-31T15:09:28;3.87;;;2.37;;
10661;SDS011;5379;51.034;7.006;2022-10-31T15:11:57;4.73;;;2.50;;
10661;SDS011;5379;51.034;7.006;2022-10-31T15:14:26;11.53;;;3.03;;
10661;SDS011;5379;51.034;7.006;2022-10-31T15:16:55;6.17;;;2.80;;
10661;SDS011;5379;51.034;7.006;2022-10-31T15:19:24;2.43;;;2.23;;
10661;SDS011;5379;51.034;7.006;2022-10-31T15:21:53;2.73;;;2.30;;
10661;SDS011;5379;51.034;7.006;2022-10-31T15:24:22;7.27;;;2.40;;
10661;SDS011;5379;51.034;7.006;2022-10-31T15:26:52;6.17;;;2.80;;
10661;SDS011;5379;51.034;7.006;2022-10-31T15:29:21;3.27;;;2.30;;
10661;SDS011;5379;51.034;7.006;2022-10-31T15:31:51;4.40;;;2.53;;
10661;SDS011;5379;51.034;7.006;2022-10-31T15:34:20;4.70;;;2.73;;